Time,TemperatureF,DewpointF,PressureIn,WindDirection,WindDirectionDegrees,WindSpeedMPH,WindSpeedGustMPH,Humidity,HourlyPrecipIn,Conditions,Clouds,dailyrainin,SolarRadiationWatts/m^2,SoftwareType,DateUTC
2013-06-04 00:22:00,57.0,57.0,-100.00,NNW,330,6.0,32.0,100,0.00,,,0.00,0.000000,,2013-06-04 10:22:00,
2013-06-04 00:32:00,57.0,57.0,-100.00,NNW,330,6.0,32.0,100,0.00,,,0.00,0.000000,,2013-06-04 10:32:00,
2013-06-04 00:42:00,57.0,57.0,-100.00,NNW,330,6.0,32.0,100,0.00,,,0.00,0.000000,,2013-06-04 10:42:00,
2013-06-04 00:52:00,57.0,57.0,-100.00,NNW,330,6.0,32.0,100,0.00,,,0.00,0.000000,,2013-06-04 10:52:00,
2013-06-04 01:22:00,57.0,57.0,-100.00,NW,323,6.0,18.0,100,0.00,,,-99.99,0.000000,,2013-06-04 11:22:00,
2013-06-04 01:32:00,57.0,57.0,-100.00,NW,323,6.0,18.0,100,0.00,,,-99.99,0.000000,,2013-06-04 11:32:00,
2013-06-04 01:42:00,57.0,57.0,-100.00,NW,323,6.0,18.0,100,0.00,,,-99.99,0.000000,,2013-06-04 11:42:00,
2013-06-04 01:52:00,57.0,57.0,-100.00,NW,323,6.0,18.0,100,0.00,,,-99.99,0.000000,,2013-06-04 11:52:00,
2013-06-04 02:22:00,55.0,55.0,-100.00,SSW,193,6.0,11.0,100,0.00,,,0.00,0.000000,,2013-06-04 12:22:00,
2013-06-04 02:32:00,55.0,55.0,-100.00,SSW,193,6.0,11.0,100,0.00,,,0.00,0.000000,,2013-06-04 12:32:00,
2013-06-04 02:42:00,55.0,55.0,-100.00,SSW,193,6.0,11.0,100,0.00,,,0.00,0.000000,,2013-06-04 12:42:00,
2013-06-04 02:52:00,55.0,55.0,-100.00,SSW,193,6.0,11.0,100,0.00,,,0.00,0.000000,,2013-06-04 12:52:00,
2013-06-04 03:22:00,56.0,56.0,-100.00,NNE,28,4.0,19.0,100,0.00,,,0.00,0.000000,,2013-06-04 13:22:00,
2013-06-04 03:32:00,56.0,56.0,-100.00,NNE,28,4.0,19.0,100,0.00,,,0.00,0.000000,,2013-06-04 13:32:00,
2013-06-04 03:42:00,56.0,56.0,-100.00,NNE,28,4.0,19.0,100,0.00,,,0.00,0.000000,,2013-06-04 13:42:00,
2013-06-04 03:52:00,56.0,56.0,-100.00,NNE,28,4.0,19.0,100,0.00,,,0.00,0.000000,,2013-06-04 13:52:00,
2013-06-04 04:22:00,52.0,52.0,-100.00,NNW,346,4.0,14.0,100,0.00,,,0.00,0.000000,,2013-06-04 14:22:00,
2013-06-04 04:32:00,52.0,52.0,-100.00,NNW,346,4.0,14.0,100,0.00,,,0.00,0.000000,,2013-06-04 14:32:00,
2013-06-04 04:42:00,52.0,52.0,-100.00,NNW,346,4.0,14.0,100,0.00,,,0.00,0.000000,,2013-06-04 14:42:00,
2013-06-04 04:52:00,52.0,52.0,-100.00,NNW,346,4.0,14.0,100,0.00,,,0.00,0.000000,,2013-06-04 14:52:00,
2013-06-04 05:22:00,55.0,55.0,-100.00,ENE,64,5.0,10.0,100,0.00,,,0.00,0.000000,,2013-06-04 15:22:00,
2013-06-04 05:33:00,55.0,55.0,-100.00,ENE,64,5.0,10.0,100,0.00,,,0.00,0.000000,,2013-06-04 15:33:00,
2013-06-04 05:42:00,55.0,55.0,-100.00,ENE,64,5.0,10.0,100,0.00,,,0.00,0.000000,,2013-06-04 15:42:00,
2013-06-04 05:53:00,55.0,55.0,-100.00,ENE,64,5.0,10.0,100,0.00,,,0.00,0.000000,,2013-06-04 15:53:00,
2013-06-04 06:22:00,55.0,55.0,-100.00,ENE,63,3.0,10.0,100,0.00,,,0.00,1.000000,,2013-06-04 16:22:00,
2013-06-04 06:33:00,55.0,55.0,-100.00,ENE,63,3.0,10.0,100,0.00,,,0.00,1.000000,,2013-06-04 16:33:00,
2013-06-04 06:42:00,55.0,55.0,-100.00,ENE,63,3.0,10.0,100,0.00,,,0.00,1.000000,,2013-06-04 16:42:00,
2013-06-04 06:52:00,55.0,55.0,-100.00,ENE,63,3.0,10.0,100,0.00,,,0.00,1.000000,,2013-06-04 16:52:00,
2013-06-04 07:23:00,59.0,59.0,-100.00,East,100,4.0,8.0,100,0.00,,,0.00,128.000000,,2013-06-04 17:23:00,
2013-06-04 07:32:00,59.0,59.0,-100.00,East,100,4.0,8.0,100,0.00,,,0.00,128.000000,,2013-06-04 17:32:00,
2013-06-04 07:42:00,59.0,59.0,-100.00,East,100,4.0,8.0,100,0.00,,,0.00,128.000000,,2013-06-04 17:42:00,
2013-06-04 07:52:00,59.0,59.0,-100.00,East,100,4.0,8.0,100,0.00,,,0.00,128.000000,,2013-06-04 17:52:00,
2013-06-04 08:22:00,65.0,58.0,-100.00,NNW,343,7.0,13.0,79,0.00,,,0.00,382.000000,,2013-06-04 18:22:00,
2013-06-04 08:32:00,65.0,58.0,-100.00,NNW,343,7.0,13.0,79,0.00,,,0.00,382.000000,,2013-06-04 18:32:00,
2013-06-04 08:42:00,65.0,58.0,-100.00,NNW,343,7.0,13.0,79,0.00,,,0.00,382.000000,,2013-06-04 18:42:00,
2013-06-04 08:52:00,65.0,58.0,-100.00,NNW,343,7.0,13.0,79,0.00,,,0.00,382.000000,,2013-06-04 18:52:00,
2013-06-04 09:22:00,66.0,57.0,-100.00,NW,326,10.0,16.0,73,0.00,,,-99.99,620.000000,,2013-06-04 19:22:00,
2013-06-04 09:32:00,66.0,57.0,-100.00,NW,326,10.0,16.0,73,0.00,,,-99.99,620.000000,,2013-06-04 19:32:00,
2013-06-04 09:42:00,66.0,57.0,-100.00,NW,326,10.0,16.0,73,0.00,,,-99.99,620.000000,,2013-06-04 19:42:00,
2013-06-04 09:52:00,66.0,57.0,-100.00,NW,326,10.0,16.0,73,0.00,,,-99.99,620.000000,,2013-06-04 19:52:00,
2013-06-04 10:22:00,69.0,58.0,-100.00,NW,304,13.0,20.0,69,0.00,,,0.00,788.000000,,2013-06-04 20:22:00,
2013-06-04 10:32:00,69.0,58.0,-100.00,NW,304,13.0,20.0,69,0.00,,,0.00,788.000000,,2013-06-04 20:32:00,
2013-06-04 10:42:00,69.0,58.0,-100.00,NW,304,13.0,20.0,69,0.00,,,0.00,788.000000,,2013-06-04 20:42:00,
2013-06-04 10:52:00,69.0,58.0,-100.00,NW,304,13.0,20.0,69,0.00,,,0.00,788.000000,,2013-06-04 20:52:00,
2013-06-04 11:22:00,69.0,57.0,-100.00,WNW,289,13.0,25.0,66,0.00,,,0.00,1002.000000,,2013-06-04 21:22:00,
2013-06-04 11:33:00,69.0,57.0,-100.00,WNW,289,13.0,25.0,66,0.00,,,0.00,1002.000000,,2013-06-04 21:33:00,
2013-06-04 11:42:00,69.0,57.0,-100.00,WNW,289,13.0,25.0,66,0.00,,,0.00,1002.000000,,2013-06-04 21:42:00,
2013-06-04 11:52:00,69.0,57.0,-100.00,WNW,289,13.0,25.0,66,0.00,,,0.00,1002.000000,,2013-06-04 21:52:00,
2013-06-04 12:22:00,71.0,58.0,-100.00,NW,304,13.0,23.0,63,0.00,,,0.00,1069.000000,,2013-06-04 22:22:00,
2013-06-04 12:32:00,71.0,58.0,-100.00,NW,304,13.0,23.0,63,0.00,,,0.00,1069.000000,,2013-06-04 22:32:00,
2013-06-04 12:42:00,71.0,58.0,-100.00,NW,304,13.0,23.0,63,0.00,,,0.00,1069.000000,,2013-06-04 22:42:00,
2013-06-04 12:52:00,71.0,58.0,-100.00,NW,304,13.0,23.0,63,0.00,,,0.00,1069.000000,,2013-06-04 22:52:00,
2013-06-04 13:22:00,73.0,61.0,-100.00,NW,311,11.0,23.0,65,0.00,,,0.00,1149.000000,,2013-06-04 23:22:00,
2013-06-04 13:32:00,73.0,61.0,-100.00,NW,311,11.0,23.0,65,0.00,,,0.00,1149.000000,,2013-06-04 23:32:00,
2013-06-04 13:42:00,73.0,61.0,-100.00,NW,311,11.0,23.0,65,0.00,,,0.00,1149.000000,,2013-06-04 23:42:00,
2013-06-04 13:52:00,73.0,61.0,-100.00,NW,311,11.0,23.0,65,0.00,,,0.00,1149.000000,,2013-06-04 23:52:00,
2013-06-04 14:22:00,72.0,62.0,-100.00,NW,311,14.0,21.0,70,0.00,,,0.00,1034.000000,,2013-06-05 00:22:00,
2013-06-04 14:32:00,72.0,62.0,-100.00,NW,311,14.0,21.0,70,0.00,,,0.00,1034.000000,,2013-06-05 00:32:00,
2013-06-04 14:42:00,72.0,62.0,-100.00,NW,311,14.0,21.0,70,0.00,,,0.00,1034.000000,,2013-06-05 00:42:00,
2013-06-04 14:52:00,72.0,62.0,-100.00,NW,311,14.0,21.0,70,0.00,,,0.00,1034.000000,,2013-06-05 00:52:00,
2013-06-04 15:22:00,64.0,59.0,-100.00,NW,322,13.0,29.0,83,0.00,,,0.00,521.000000,,2013-06-05 01:22:00,
2013-06-04 15:32:00,64.0,59.0,-100.00,NW,322,13.0,29.0,83,0.00,,,0.00,521.000000,,2013-06-05 01:32:00,
2013-06-04 15:42:00,64.0,59.0,-100.00,NW,322,13.0,29.0,83,0.00,,,0.00,521.000000,,2013-06-05 01:42:00,
2013-06-04 15:52:00,64.0,59.0,-100.00,NW,322,13.0,29.0,83,0.00,,,0.00,521.000000,,2013-06-05 01:52:00,
2013-06-04 16:22:00,61.0,61.0,-100.00,North,356,11.0,21.0,100,0.00,,,0.00,288.000000,,2013-06-05 02:22:00,
2013-06-04 16:32:00,61.0,61.0,-100.00,North,356,11.0,21.0,100,0.00,,,0.00,288.000000,,2013-06-05 02:32:00,
2013-06-04 16:42:00,61.0,61.0,-100.00,North,356,11.0,21.0,100,0.00,,,0.00,288.000000,,2013-06-05 02:42:00,
2013-06-04 16:52:00,61.0,61.0,-100.00,North,356,11.0,21.0,100,0.00,,,0.00,288.000000,,2013-06-05 02:52:00,
2013-06-04 17:22:00,60.0,60.0,-100.00,NNW,343,10.0,17.0,100,0.00,,,0.00,278.000000,,2013-06-05 03:22:00,
2013-06-04 17:33:00,60.0,60.0,-100.00,NNW,343,10.0,17.0,100,0.00,,,0.00,278.000000,,2013-06-05 03:33:00,
2013-06-04 17:43:00,60.0,60.0,-100.00,NNW,343,10.0,17.0,100,0.00,,,0.00,278.000000,,2013-06-05 03:43:00,
2013-06-04 17:53:00,60.0,60.0,-100.00,NNW,343,10.0,17.0,100,0.00,,,0.00,278.000000,,2013-06-05 03:53:00,
2013-06-04 18:22:00,63.0,58.0,-100.00,WNW,303,5.0,12.0,84,0.00,,,0.00,155.000000,,2013-06-05 04:22:00,
2013-06-04 18:33:00,63.0,58.0,-100.00,WNW,303,5.0,12.0,84,0.00,,,0.00,155.000000,,2013-06-05 04:33:00,
2013-06-04 18:42:00,63.0,58.0,-100.00,WNW,303,5.0,12.0,84,0.00,,,0.00,155.000000,,2013-06-05 04:42:00,
2013-06-04 18:53:00,63.0,58.0,-100.00,WNW,303,5.0,12.0,84,0.00,,,0.00,155.000000,,2013-06-05 04:53:00,
2013-06-04 19:22:00,59.0,59.0,-100.00,WNW,286,6.0,12.0,100,0.00,,,0.00,29.000000,,2013-06-05 05:22:00,
2013-06-04 19:32:00,59.0,59.0,-100.00,WNW,286,6.0,12.0,100,0.00,,,0.00,29.000000,,2013-06-05 05:32:00,
2013-06-04 19:42:00,59.0,59.0,-100.00,WNW,286,6.0,12.0,100,0.00,,,0.00,29.000000,,2013-06-05 05:42:00,
2013-06-04 19:52:00,59.0,59.0,-100.00,WNW,286,6.0,12.0,100,0.00,,,0.00,29.000000,,2013-06-05 05:52:00,
2013-06-04 20:22:00,61.0,57.0,-100.00,WSW,244,4.0,9.0,88,0.00,,,0.00,0.000000,,2013-06-05 06:22:00,
2013-06-04 20:32:00,61.0,57.0,-100.00,WSW,244,4.0,9.0,88,0.00,,,0.00,0.000000,,2013-06-05 06:32:00,
2013-06-04 20:42:00,61.0,57.0,-100.00,WSW,244,4.0,9.0,88,0.00,,,0.00,0.000000,,2013-06-05 06:42:00,
2013-06-04 20:52:00,61.0,57.0,-100.00,WSW,244,4.0,9.0,88,0.00,,,0.00,0.000000,,2013-06-05 06:52:00,
2013-06-04 21:22:00,55.0,55.0,-100.00,SSE,155,5.0,9.0,100,0.00,,,0.00,0.000000,,2013-06-05 07:22:00,
2013-06-04 21:32:00,55.0,55.0,-100.00,SSE,155,5.0,9.0,100,0.00,,,0.00,0.000000,,2013-06-05 07:32:00,
2013-06-04 21:42:00,55.0,55.0,-100.00,SSE,155,5.0,9.0,100,0.00,,,0.00,0.000000,,2013-06-05 07:42:00,
2013-06-04 21:52:00,55.0,55.0,-100.00,SSE,155,5.0,9.0,100,0.00,,,0.00,0.000000,,2013-06-05 07:52:00,
2013-06-04 22:22:00,60.0,57.0,-100.00,South,186,5.0,13.0,91,0.00,,,0.00,0.000000,,2013-06-05 08:22:00,
2013-06-04 22:32:00,60.0,57.0,-100.00,South,186,5.0,13.0,91,0.00,,,0.00,0.000000,,2013-06-05 08:32:00,
2013-06-04 22:42:00,60.0,57.0,-100.00,South,186,5.0,13.0,91,0.00,,,0.00,0.000000,,2013-06-05 08:42:00,
2013-06-04 22:52:00,60.0,57.0,-100.00,South,186,5.0,13.0,91,0.00,,,0.00,0.000000,,2013-06-05 08:52:00,
2013-06-04 23:22:00,53.0,53.0,-100.00,ESE,114,7.0,11.0,100,0.00,,,0.00,0.000000,,2013-06-05 09:22:00,
2013-06-04 23:32:00,53.0,53.0,-100.00,ESE,114,7.0,11.0,100,0.00,,,0.00,0.000000,,2013-06-05 09:32:00,
2013-06-04 23:42:00,53.0,53.0,-100.00,ESE,114,7.0,11.0,100,0.00,,,0.00,0.000000,,2013-06-05 09:42:00,
2013-06-04 23:52:00,53.0,53.0,-100.00,ESE,114,7.0,11.0,100,0.00,,,0.00,0.000000,,2013-06-05 09:52:00,